Time;durP1;ratioP1;P1;durP2;ratioP2;P2;SDS_P1;SDS_P2;PMS_P1;PMS_P2;Temp;Humidity;BMP_temperature;BMP_pressure;BME280_temperature;BME280_humidity;BME280_pressure;Samples;Min_cycle;Max_cycle;Signal;HPM_P1;HPM_P2
2023/06/03 00:02:05;;;;;;;0.00;0.00;;;;;;;;;;4993536;28;20038;-81
2023/06/03 00:04:31;;;;;;;0.00;0.00;;;;;;;;;;4991739;28;20061;-80
2023/06/03 00:06:57;;;;;;;0.00;0.00;;;;;;;;;;4993447;28;20046;-81
2023/06/03 00:09:23;;;;;;;0.00;0.00;;;;;;;;;;4992903;28;20438;-81
2023/06/03 00:11:50;;;;;;;0.00;0.00;;;;;;;;;;4991803;28;20046;-80
2023/06/03 00:14:17;;;;;;;0.00;0.00;;;;;;;;;;4993307;28;20077;-80
2023/06/03 00:16:46;;;;;;;0.00;0.00;;;;;;;;;;4993104;28;20050;-80
2023/06/03 00:19:14;;;;;;;0.00;0.00;;;;;;;;;;4992983;28;20228;-81
2023/06/03 00:21:40;;;;;;;0.00;0.00;;;;;;;;;;4991790;28;20050;-81
2023/06/03 00:24:06;;;;;;;0.00;0.00;;;;;;;;;;4991802;28;20119;-80
2023/06/03 00:26:32;;;;;;;0.00;0.00;;;;;;;;;;4992122;28;20058;-80
2023/06/03 00:28:58;;;;;;;0.00;0.00;;;;;;;;;;4994644;28;20046;-81
2023/06/03 00:31:24;;;;;;;0.00;0.00;;;;;;;;;;4997077;28;20042;-81
2023/06/03 00:33:51;;;;;;;0.00;0.00;;;;;;;;;;4997030;28;20441;-81
2023/06/03 00:36:17;;;;;;;0.00;0.00;;;;;;;;;;4996930;28;20117;-81
2023/06/03 00:38:43;;;;;;;0.00;0.00;;;;;;;;;;4995431;28;20537;-81
2023/06/03 00:41:09;;;;;;;0.00;0.00;;;;;;;;;;4995630;28;20390;-81
2023/06/03 00:43:34;;;;;;;0.10;0.00;;;;;;;;;;4995212;28;20129;-81
2023/06/03 00:46:00;;;;;;;0.00;0.00;;;;;;;;;;4996663;28;20038;-81
2023/06/03 00:48:27;;;;;;;0.00;0.00;;;;;;;;;;4995309;28;20043;-81
2023/06/03 00:50:53;;;;;;;0.00;0.00;;;;;;;;;;4996702;28;20462;-81
2023/06/03 00:53:19;;;;;;;0.00;0.00;;;;;;;;;;4995121;28;20042;-81
2023/06/03 00:55:45;;;;;;;0.00;0.00;;;;;;;;;;4996744;28;20450;-81
2023/06/03 00:58:12;;;;;;;0.00;0.00;;;;;;;;;;4994851;28;20100;-81
2023/06/03 01:00:38;;;;;;;0.00;0.00;;;;;;;;;;4995074;28;20126;-81
2023/06/03 01:03:04;;;;;;;0.00;0.00;;;;;;;;;;4996062;28;20125;-81
2023/06/03 01:05:30;;;;;;;0.00;0.00;;;;;;;;;;4996201;28;20093;-81
2023/06/03 01:08:15;;;;;;;0.00;0.00;;;;;;;;;;4994683;28;20047;-81
2023/06/03 01:10:46;;;;;;;0.00;0.00;;;;;;;;;;4995124;28;20093;-81
2023/06/03 01:13:12;;;;;;;0.00;0.00;;;;;;;;;;4994800;28;20375;-80
2023/06/03 01:15:40;;;;;;;0.00;0.00;;;;;;;;;;4994871;28;20061;-81
2023/06/03 01:18:06;;;;;;;0.00;0.00;;;;;;;;;;4996089;28;20042;-81
2023/06/03 01:20:33;;;;;;;0.00;0.00;;;;;;;;;;4994842;28;20050;-81
2023/06/03 01:23:20;;;;;;;0.00;0.00;;;;;;;;;;4996081;28;20038;-81
2023/06/03 01:25:46;;;;;;;0.00;0.00;;;;;;;;;;4978591;28;20038;-81
2023/06/03 01:28:12;;;;;;;0.00;0.00;;;;;;;;;;4994539;28;20395;-81
2023/06/03 01:30:38;;;;;;;0.00;0.00;;;;;;;;;;4995864;28;20050;-81
2023/06/03 01:33:04;;;;;;;0.00;0.00;;;;;;;;;;4994542;28;20057;-81
2023/06/03 01:35:31;;;;;;;0.00;0.00;;;;;;;;;;4995619;28;20039;-81
2023/06/03 01:37:57;;;;;;;0.00;0.00;;;;;;;;;;4978033;28;20059;-80
2023/06/03 01:40:23;;;;;;;0.00;0.00;;;;;;;;;;4994657;28;20046;-80
2023/06/03 01:42:50;;;;;;;0.00;0.00;;;;;;;;;;4995543;28;20478;-80
2023/06/03 01:45:16;;;;;;;0.00;0.00;;;;;;;;;;4994116;28;20069;-80
2023/06/03 01:47:42;;;;;;;0.00;0.00;;;;;;;;;;4994509;28;20144;-80
2023/06/03 01:50:08;;;;;;;0.00;0.00;;;;;;;;;;4995362;28;20043;-80
2023/06/03 01:52:34;;;;;;;0.00;0.00;;;;;;;;;;4994231;28;20042;-81
2023/06/03 01:55:00;;;;;;;0.00;0.00;;;;;;;;;;4995186;28;20073;-80
2023/06/03 01:57:26;;;;;;;0.00;0.00;;;;;;;;;;4995451;28;20106;-81
2023/06/03 01:59:52;;;;;;;0.00;0.00;;;;;;;;;;4993646;28;20049;-80
2023/06/03 02:02:18;;;;;;;0.00;0.00;;;;;;;;;;4995217;28;20046;-80
2023/06/03 02:04:45;;;;;;;0.00;0.00;;;;;;;;;;4994790;28;20146;-80
2023/06/03 02:07:11;;;;;;;0.00;0.00;;;;;;;;;;4995275;28;20089;-80
2023/06/03 02:09:37;;;;;;;0.00;0.00;;;;;;;;;;4993789;28;20125;-80
2023/06/03 02:12:03;;;;;;;0.00;0.00;;;;;;;;;;4995198;28;20529;-81
2023/06/03 02:14:32;;;;;;;0.00;0.00;;;;;;;;;;4993623;28;20046;-80
2023/06/03 02:16:59;;;;;;;0.00;0.00;;;;;;;;;;4995150;28;20047;-80
2023/06/03 02:19:26;;;;;;;0.00;0.00;;;;;;;;;;4993382;28;20041;-81
2023/06/03 02:21:52;;;;;;;0.00;0.00;;;;;;;;;;4995029;28;20387;-81
2023/06/03 02:24:19;;;;;;;0.00;0.00;;;;;;;;;;4994775;28;20473;-80
2023/06/03 02:26:52;;;;;;;0.00;0.00;;;;;;;;;;4993694;28;20050;-80
2023/06/03 02:29:18;;;;;;;0.00;0.00;;;;;;;;;;4994503;28;20431;-80
2023/06/03 02:31:45;;;;;;;0.00;0.00;;;;;;;;;;4993407;28;20046;-79
2023/06/03 02:34:10;;;;;;;0.00;0.00;;;;;;;;;;4993160;28;20096;-80
2023/06/03 02:36:38;;;;;;;0.00;0.00;;;;;;;;;;4994397;28;20042;-80
2023/06/03 02:39:04;;;;;;;0.00;0.00;;;;;;;;;;4994418;28;20046;-81
2023/06/03 02:41:31;;;;;;;0.00;0.00;;;;;;;;;;4993226;28;20045;-80
2023/06/03 02:43:57;;;;;;;0.00;0.00;;;;;;;;;;4993178;28;20072;-79
2023/06/03 02:46:23;;;;;;;0.00;0.00;;;;;;;;;;4993427;28;20042;-80
2023/06/03 02:48:49;;;;;;;0.00;0.00;;;;;;;;;;4993393;28;20049;-81
2023/06/03 02:51:15;;;;;;;0.00;0.00;;;;;;;;;;4993632;28;20092;-80
2023/06/03 02:53:42;;;;;;;0.00;0.00;;;;;;;;;;4993743;28;20049;-80
2023/06/03 02:56:08;;;;;;;0.00;0.00;;;;;;;;;;4994211;28;20038;-81
2023/06/03 02:58:34;;;;;;;0.00;0.00;;;;;;;;;;4993126;28;20136;-81
2023/06/03 03:01:00;;;;;;;0.00;0.00;;;;;;;;;;4976272;28;20478;-80
2023/06/03 03:03:26;;;;;;;0.00;0.00;;;;;;;;;;4992390;28;20548;-80
2023/06/03 03:05:54;;;;;;;0.00;0.00;;;;;;;;;;4992605;28;20050;-80
2023/06/03 03:08:21;;;;;;;0.00;0.00;;;;;;;;;;4992621;28;20050;-79
2023/06/03 03:10:47;;;;;;;0.00;0.00;;;;;;;;;;4993658;28;20057;-80
2023/06/03 03:13:19;;;;;;;0.00;0.00;;;;;;;;;;5110636;27;20393;-79
2023/06/03 03:15:45;;;;;;;0.00;0.00;;;;;;;;;;5108660;28;20458;-81
2023/06/03 03:18:11;;;;;;;0.00;0.00;;;;;;;;;;5108822;28;20118;-81
2023/06/03 03:20:37;;;;;;;0.00;0.00;;;;;;;;;;5109902;28;20142;-81
2023/06/03 03:23:03;;;;;;;0.00;0.00;;;;;;;;;;5110398;28;20089;-81
2023/06/03 03:25:29;;;;;;;0.00;0.00;;;;;;;;;;5110450;28;20363;-81
2023/06/03 03:27:55;;;;;;;0.00;0.00;;;;;;;;;;5108926;28;20104;-81
2023/06/03 03:30:21;;;;;;;0.00;0.00;;;;;;;;;;5091413;28;20503;-81
2023/06/03 03:32:50;;;;;;;0.00;0.00;;;;;;;;;;5109858;28;20036;-81
2023/06/03 03:35:17;;;;;;;0.00;0.00;;;;;;;;;;5109869;28;20043;-81
2023/06/03 03:37:44;;;;;;;0.00;0.00;;;;;;;;;;5108788;28;20482;-81
2023/06/03 03:40:20;;;;;;;0.00;0.00;;;;;;;;;;5109509;28;20507;-81
2023/06/03 03:42:47;;;;;;;0.00;0.00;;;;;;;;;;5108616;28;20054;-82
2023/06/03 03:45:18;;;;;;;0.00;0.00;;;;;;;;;;5091211;28;20036;-81
2023/06/03 03:47:45;;;;;;;0.00;0.00;;;;;;;;;;5109966;28;20047;-81
2023/06/03 03:50:23;;;;;;;0.00;0.00;;;;;;;;;;5109632;28;20040;-81
2023/06/03 03:52:49;;;;;;;0.00;0.00;;;;;;;;;;5109687;28;20515;-81
2023/06/03 03:55:16;;;;;;;0.00;0.00;;;;;;;;;;5091161;28;20069;-81
2023/06/03 03:57:42;;;;;;;0.00;0.00;;;;;;;;;;5108734;28;20047;-82
2023/06/03 04:00:09;;;;;;;0.00;0.00;;;;;;;;;;5108019;28;20126;-81
2023/06/03 04:02:39;;;;;;;0.00;0.00;;;;;;;;;;5108259;28;20075;-81
2023/06/03 04:05:05;;;;;;;0.00;0.00;;;;;;;;;;5091086;28;20101;-79
2023/06/03 04:07:33;;;;;;;0.00;0.00;;;;;;;;;;5091815;28;20105;-79
2023/06/03 04:09:59;;;;;;;0.00;0.00;;;;;;;;;;5109083;28;20048;-79
2023/06/03 04:12:32;;;;;;;0.00;0.00;;;;;;;;;;5107891;28;20105;-79
2023/06/03 04:14:58;;;;;;;0.00;0.00;;;;;;;;;;5107819;28;20119;-79
2023/06/03 04:17:27;;;;;;;0.00;0.00;;;;;;;;;;5108144;28;20304;-79
2023/06/03 04:19:53;;;;;;;0.00;0.00;;;;;;;;;;5107822;28;20047;-79
2023/06/03 04:22:23;;;;;;;0.00;0.00;;;;;;;;;;5108028;28;20043;-79
2023/06/03 04:25:00;;;;;;;0.00;0.00;;;;;;;;;;5093857;28;20484;-80
2023/06/03 04:27:26;;;;;;;0.00;0.00;;;;;;;;;;5094398;28;20047;-79
2023/06/03 04:29:52;;;;;;;0.00;0.00;;;;;;;;;;5094244;28;20106;-79
2023/06/03 04:32:18;;;;;;;0.00;0.00;;;;;;;;;;5094286;28;20040;-79
2023/06/03 04:34:52;;;;;;;0.00;0.00;;;;;;;;;;5094407;28;20054;-79
2023/06/03 04:37:18;;;;;;;0.00;0.00;;;;;;;;;;5094183;28;20059;-79
2023/06/03 04:39:44;;;;;;;0.00;0.00;;;;;;;;;;5095503;28;20039;-79
2023/06/03 04:42:12;;;;;;;0.00;0.00;;;;;;;;;;5095047;28;20044;-79
2023/06/03 04:44:38;;;;;;;0.00;0.00;;;;;;;;;;5077417;28;20040;-78
2023/06/03 04:47:05;;;;;;;0.00;0.00;;;;;;;;;;5095515;28;20050;-79
2023/06/03 04:49:32;;;;;;;0.00;0.00;;;;;;;;;;5095435;28;20074;-79
2023/06/03 04:51:58;;;;;;;0.00;0.00;;;;;;;;;;5093996;28;20122;-79
2023/06/03 04:54:24;;;;;;;0.00;0.00;;;;;;;;;;5095198;28;20072;-79
2023/06/03 04:56:50;;;;;;;0.00;0.00;;;;;;;;;;5093605;28;20093;-79
2023/06/03 04:59:16;;;;;;;0.00;0.00;;;;;;;;;;5094979;28;20040;-79
2023/06/03 05:01:44;;;;;;;0.00;0.00;;;;;;;;;;5093772;28;20051;-79
2023/06/03 05:04:13;;;;;;;0.00;0.00;;;;;;;;;;5076821;28;20131;-79
2023/06/03 05:06:39;;;;;;;0.00;0.00;;;;;;;;;;5093301;28;20051;-79
2023/06/03 05:09:09;;;;;;;0.00;0.00;;;;;;;;;;5094744;28;20040;-79
2023/06/03 05:11:35;;;;;;;0.00;0.00;;;;;;;;;;5075953;28;20059;-79
2023/06/03 05:14:01;;;;;;;0.00;0.00;;;;;;;;;;5094742;28;20047;-79
2023/06/03 05:16:27;;;;;;;0.00;0.00;;;;;;;;;;5094309;28;20028;-79
2023/06/03 05:18:53;;;;;;;0.00;0.00;;;;;;;;;;5094598;28;20407;-79
2023/06/03 05:21:19;;;;;;;0.00;0.00;;;;;;;;;;5094329;28;20148;-79
2023/06/03 05:23:46;;;;;;;0.00;0.00;;;;;;;;;;5094350;28;20475;-79
2023/06/03 05:26:12;;;;;;;0.00;0.00;;;;;;;;;;5093034;28;20044;-79
2023/06/03 05:28:38;;;;;;;0.00;0.00;;;;;;;;;;5093039;28;20096;-79
2023/06/03 05:31:04;;;;;;;0.00;0.00;;;;;;;;;;5092690;28;20047;-79
2023/06/03 05:33:31;;;;;;;0.00;0.00;;;;;;;;;;5094270;28;20067;-79
2023/06/03 05:35:57;;;;;;;0.00;0.00;;;;;;;;;;5091916;28;20042;-79
2023/06/03 05:38:23;;;;;;;0.00;0.00;;;;;;;;;;5094323;28;20454;-79
2023/06/03 05:40:52;;;;;;;0.00;0.00;;;;;;;;;;5093705;28;20479;-79
2023/06/03 05:43:19;;;;;;;0.00;0.00;;;;;;;;;;5092809;28;20048;-79
2023/06/03 05:45:45;;;;;;;0.00;0.00;;;;;;;;;;5093734;28;20119;-79
2023/06/03 05:48:11;;;;;;;0.00;0.00;;;;;;;;;;5092772;28;20101;-79
2023/06/03 05:50:39;;;;;;;0.00;0.00;;;;;;;;;;5092722;28;20040;-79
2023/06/03 05:53:05;;;;;;;0.00;0.00;;;;;;;;;;5075272;28;20101;-80
2023/06/03 05:55:32;;;;;;;0.00;0.00;;;;;;;;;;5075562;28;20036;-79
2023/06/03 05:57:57;;;;;;;0.00;0.00;;;;;;;;;;5092438;28;20451;-79
2023/06/03 06:00:23;;;;;;;0.00;0.00;;;;;;;;;;5092302;28;20039;-79
2023/06/03 06:02:50;;;;;;;0.00;0.00;;;;;;;;;;5093306;28;20044;-79
2023/06/03 06:05:16;;;;;;;0.00;0.00;;;;;;;;;;5093729;28;20118;-79
2023/06/03 06:07:42;;;;;;;0.00;0.00;;;;;;;;;;5092310;28;20054;-79
2023/06/03 06:10:08;;;;;;;0.00;0.00;;;;;;;;;;5093454;28;20044;-79
2023/06/03 06:12:34;;;;;;;0.00;0.00;;;;;;;;;;5093041;28;20090;-79
2023/06/03 06:15:00;;;;;;;0.00;0.00;;;;;;;;;;5092090;28;20048;-79
2023/06/03 06:17:26;;;;;;;0.00;0.00;;;;;;;;;;5091701;28;20110;-80
2023/06/03 06:19:52;;;;;;;0.00;0.00;;;;;;;;;;5092057;28;20050;-80
2023/06/03 06:22:18;;;;;;;0.00;0.00;;;;;;;;;;5092030;28;20043;-80
2023/06/03 06:24:44;;;;;;;0.00;0.00;;;;;;;;;;5091891;28;20047;-80
2023/06/03 06:27:10;;;;;;;0.00;0.00;;;;;;;;;;5091915;28;20040;-80
2023/06/03 06:29:36;;;;;;;0.00;0.00;;;;;;;;;;5093073;28;20372;-80
2023/06/03 06:32:03;;;;;;;0.00;0.00;;;;;;;;;;5091468;28;20044;-80
2023/06/03 06:34:31;;;;;;;0.00;0.00;;;;;;;;;;5091839;28;20115;-80
2023/06/03 06:36:58;;;;;;;0.00;0.00;;;;;;;;;;5091700;28;20426;-80
2023/06/03 06:39:33;;;;;;;0.00;0.00;;;;;;;;;;5093026;28;20118;-80
2023/06/03 06:42:10;;;;;;;0.00;0.00;;;;;;;;;;5092713;28;20036;-80
2023/06/03 06:44:39;;;;;;;0.00;0.00;;;;;;;;;;5091583;28;20175;-80
2023/06/03 06:47:05;;;;;;;0.00;0.00;;;;;;;;;;5090975;28;20122;-80
2023/06/03 06:49:32;;;;;;;0.00;0.00;;;;;;;;;;5091498;28;20152;-80
2023/06/03 06:52:00;;;;;;;0.00;0.00;;;;;;;;;;5092500;28;20039;-80
2023/06/03 06:54:26;;;;;;;0.00;0.00;;;;;;;;;;5091727;28;20368;-80
2023/06/03 06:56:52;;;;;;;0.00;0.00;;;;;;;;;;5092424;28;20062;-80
2023/06/03 06:59:17;;;;;;;0.00;0.00;;;;;;;;;;5091528;28;20388;-80
2023/06/03 07:01:45;;;;;;;0.00;0.00;;;;;;;;;;5092460;28;20095;-80
2023/06/03 07:04:11;;;;;;;0.00;0.00;;;;;;;;;;5092827;28;20059;-80
2023/06/03 07:06:37;;;;;;;0.00;0.00;;;;;;;;;;5091156;28;20036;-80
2023/06/03 07:09:04;;;;;;;0.00;0.00;;;;;;;;;;5090968;28;20407;-79
2023/06/03 07:11:36;;;;;;;0.00;0.00;;;;;;;;;;5091908;28;20056;-79
2023/06/03 07:14:02;;;;;;;0.00;0.00;;;;;;;;;;5091093;28;20039;-80
2023/06/03 07:16:28;;;;;;;0.00;0.00;;;;;;;;;;5092469;28;20353;-80
2023/06/03 07:18:54;;;;;;;0.00;0.00;;;;;;;;;;5091091;28;20060;-80
2023/06/03 07:21:25;;;;;;;0.00;0.00;;;;;;;;;;5091032;28;20093;-80
2023/06/03 07:23:51;;;;;;;0.00;0.00;;;;;;;;;;5090973;28;20198;-81
2023/06/03 07:26:18;;;;;;;0.00;0.00;;;;;;;;;;5090960;28;20125;-80
2023/06/03 07:28:46;;;;;;;0.00;0.00;;;;;;;;;;5090980;28;20086;-79
2023/06/03 07:31:12;;;;;;;0.00;0.00;;;;;;;;;;5092153;28;20048;-80
2023/06/03 07:33:49;;;;;;;0.00;0.00;;;;;;;;;;5092346;28;20043;-79
2023/06/03 07:36:15;;;;;;;0.00;0.00;;;;;;;;;;5092259;28;20204;-80
2023/06/03 07:38:59;;;;;;;0.00;0.00;;;;;;;;;;5073795;28;20044;-84
2023/06/03 07:41:43;;;;;;;0.00;0.00;;;;;;;;;;5092261;28;20128;-80
2023/06/03 07:44:11;;;;;;;0.00;0.00;;;;;;;;;;5091962;28;20036;-79
2023/06/03 07:46:44;;;;;;;0.00;0.00;;;;;;;;;;5092184;28;20044;-78
2023/06/03 07:49:11;;;;;;;0.00;0.00;;;;;;;;;;5090583;28;20040;-79
2023/06/03 07:51:41;;;;;;;0.00;0.00;;;;;;;;;;5090706;28;20040;-79
2023/06/03 07:54:08;;;;;;;0.00;0.00;;;;;;;;;;5090862;28;20044;-79
2023/06/03 07:56:34;;;;;;;0.00;0.00;;;;;;;;;;5090745;28;20059;-78
2023/06/03 07:59:03;;;;;;;0.00;0.00;;;;;;;;;;5075536;28;20055;-79
2023/06/03 08:01:29;;;;;;;0.00;0.00;;;;;;;;;;5094518;28;20448;-79
2023/06/03 08:03:55;;;;;;;0.00;0.00;;;;;;;;;;5095924;28;20047;-79
2023/06/03 08:06:26;;;;;;;0.00;0.00;;;;;;;;;;5094617;28;20040;-80
2023/06/03 08:08:53;;;;;;;0.00;0.00;;;;;;;;;;5095625;28;20380;-79
2023/06/03 08:11:19;;;;;;;0.00;0.00;;;;;;;;;;5094239;28;20056;-79
2023/06/03 08:13:45;;;;;;;0.00;0.00;;;;;;;;;;5095275;28;20097;-79
2023/06/03 08:16:14;;;;;;;0.00;0.00;;;;;;;;;;5093958;28;20043;-80
2023/06/03 08:18:54;;;;;;;0.00;0.00;;;;;;;;;;5077168;28;20036;-81
2023/06/03 08:21:23;;;;;;;0.00;0.00;;;;;;;;;;5094112;28;20043;-79
2023/06/03 08:23:49;;;;;;;0.00;0.00;;;;;;;;;;5094142;28;20495;-80
2023/06/03 08:26:15;;;;;;;0.00;0.00;;;;;;;;;;5094168;28;20068;-79
2023/06/03 08:28:43;;;;;;;0.00;0.00;;;;;;;;;;5094927;28;20360;-79
2023/06/03 08:31:09;;;;;;;0.00;0.00;;;;;;;;;;5095425;28;20502;-80
2023/06/03 08:33:35;;;;;;;0.00;0.00;;;;;;;;;;5093833;28;20040;-79
2023/06/03 08:36:02;;;;;;;0.00;0.00;;;;;;;;;;5093899;28;20116;-80
2023/06/03 08:38:28;;;;;;;0.00;0.00;;;;;;;;;;5093670;28;20051;-81
2023/06/03 08:40:54;;;;;;;0.00;0.00;;;;;;;;;;5094852;28;20036;-79
2023/06/03 08:43:21;;;;;;;0.00;0.00;;;;;;;;;;5093707;28;20475;-80
2023/06/03 08:46:02;;;;;;;0.00;0.00;;;;;;;;;;5095082;28;20398;-80
2023/06/03 08:48:40;;;;;;;0.00;0.00;;;;;;;;;;5094799;28;20055;-80
2023/06/03 08:51:07;;;;;;;0.00;0.00;;;;;;;;;;5094727;28;20083;-80
2023/06/03 08:53:37;;;;;;;0.00;0.00;;;;;;;;;;5094429;28;20119;-80
2023/06/03 08:56:04;;;;;;;0.00;0.00;;;;;;;;;;5093559;28;20043;-80
2023/06/03 08:58:33;;;;;;;0.00;0.00;;;;;;;;;;5094592;28;20036;-84
2023/06/03 09:01:01;;;;;;;0.00;0.00;;;;;;;;;;5093626;28;20048;-80
2023/06/03 09:03:28;;;;;;;0.00;0.00;;;;;;;;;;5093184;28;20040;-80
2023/06/03 09:05:54;;;;;;;0.00;0.00;;;;;;;;;;5093439;28;20050;-80
2023/06/03 09:08:20;;;;;;;0.00;0.00;;;;;;;;;;5094603;28;20043;-80
2023/06/03 09:10:47;;;;;;;0.00;0.00;;;;;;;;;;5094698;28;20119;-79
2023/06/03 09:13:17;;;;;;;0.00;0.00;;;;;;;;;;5094085;28;20137;-80
2023/06/03 09:15:43;;;;;;;0.00;0.00;;;;;;;;;;5093226;28;20079;-80
2023/06/03 09:18:10;;;;;;;0.00;0.00;;;;;;;;;;5093003;28;20048;-80
2023/06/03 09:20:36;;;;;;;0.00;0.00;;;;;;;;;;5076245;28;20040;-80
2023/06/03 09:23:03;;;;;;;0.00;0.00;;;;;;;;;;5093114;28;20054;-80
2023/06/03 09:25:28;;;;;;;0.00;0.00;;;;;;;;;;5094648;28;20051;-80
2023/06/03 09:27:55;;;;;;;0.00;0.00;;;;;;;;;;5094396;28;20433;-80
2023/06/03 09:30:21;;;;;;;0.00;0.00;;;;;;;;;;5076320;28;20122;-80
2023/06/03 09:32:47;;;;;;;0.00;0.00;;;;;;;;;;5094160;28;20050;-81
2023/06/03 09:35:13;;;;;;;0.00;0.00;;;;;;;;;;5092843;28;20040;-80
2023/06/03 09:37:57;;;;;;;0.00;0.00;;;;;;;;;;5094348;28;20164;-80
2023/06/03 09:40:29;;;;;;;0.00;0.00;;;;;;;;;;5092935;28;20097;-80
2023/06/03 09:42:56;;;;;;;0.00;0.00;;;;;;;;;;5092731;28;20543;-80
2023/06/03 09:45:23;;;;;;;0.00;0.00;;;;;;;;;;5075588;28;20044;-80
2023/06/03 09:47:49;;;;;;;0.00;0.00;;;;;;;;;;5092646;28;20044;-81
2023/06/03 09:50:15;;;;;;;0.00;0.00;;;;;;;;;;5093703;28;20032;-81
2023/06/03 09:52:41;;;;;;;0.00;0.00;;;;;;;;;;5093583;28;20376;-81
2023/06/03 09:55:08;;;;;;;0.00;0.00;;;;;;;;;;5092520;28;20043;-82
2023/06/03 09:57:35;;;;;;;0.00;0.00;;;;;;;;;;5092429;28;20165;-81
2023/06/03 10:00:09;;;;;;;0.15;0.00;;;;;;;;;;5092177;28;20039;-80
2023/06/03 10:02:39;;;;;;;0.00;0.00;;;;;;;;;;5075760;28;20450;-80
2023/06/03 10:05:05;;;;;;;0.00;0.00;;;;;;;;;;5075470;28;20047;-80
2023/06/03 10:07:31;;;;;;;0.00;0.00;;;;;;;;;;5075831;28;20059;-80
2023/06/03 10:10:04;;;;;;;0.00;0.00;;;;;;;;;;5093687;28;20035;-79
2023/06/03 10:12:31;;;;;;;0.00;0.00;;;;;;;;;;5092093;28;20056;-79
2023/06/03 10:14:58;;;;;;;0.00;0.00;;;;;;;;;;5074845;28;20036;-80
2023/06/03 10:17:26;;;;;;;0.00;0.00;;;;;;;;;;5092159;28;20075;-80
2023/06/03 10:19:52;;;;;;;0.00;0.00;;;;;;;;;;5091755;28;20040;-79
2023/06/03 10:22:19;;;;;;;0.00;0.00;;;;;;;;;;5093199;28;20044;-79
2023/06/03 10:24:47;;;;;;;0.00;0.00;;;;;;;;;;5091880;28;20095;-80
2023/06/03 10:27:14;;;;;;;0.00;0.00;;;;;;;;;;5093307;28;20384;-80
2023/06/03 10:29:40;;;;;;;0.00;0.00;;;;;;;;;;5093218;28;20048;-81
2023/06/03 10:32:07;;;;;;;0.00;0.00;;;;;;;;;;5093209;28;20044;-80
2023/06/03 10:34:39;;;;;;;0.00;0.00;;;;;;;;;;5091535;28;20040;-80
2023/06/03 10:37:06;;;;;;;0.00;0.00;;;;;;;;;;5091666;28;20039;-80
2023/06/03 10:39:32;;;;;;;0.00;0.00;;;;;;;;;;5091594;28;20421;-80
2023/06/03 10:42:03;;;;;;;0.00;0.00;;;;;;;;;;5092897;28;20075;-80
2023/06/03 10:44:29;;;;;;;0.00;0.00;;;;;;;;;;5092923;28;20081;-80
2023/06/03 10:47:00;;;;;;;0.00;0.00;;;;;;;;;;5092859;28;20115;-80
2023/06/03 10:49:29;;;;;;;0.00;0.00;;;;;;;;;;5092689;28;20044;-80
2023/06/03 10:52:14;;;;;;;0.00;0.00;;;;;;;;;;5091661;28;20040;-80
2023/06/03 10:54:59;;;;;;;0.00;0.00;;;;;;;;;;5091199;28;20501;-79
2023/06/03 10:57:26;;;;;;;0.00;0.00;;;;;;;;;;5092677;28;20266;-79
2023/06/03 10:59:52;;;;;;;0.00;0.00;;;;;;;;;;5092297;28;20560;-80
2023/06/03 11:02:18;;;;;;;0.00;0.00;;;;;;;;;;5092772;28;20039;-79
2023/06/03 11:04:46;;;;;;;0.00;0.00;;;;;;;;;;5092442;28;20040;-80
2023/06/03 11:07:30;;;;;;;0.00;0.00;;;;;;;;;;5092742;28;20043;-79
2023/06/03 11:09:56;;;;;;;0.00;0.00;;;;;;;;;;5090991;28;20127;-80
2023/06/03 11:12:42;;;;;;;0.00;0.00;;;;;;;;;;5091169;28;20052;-80
2023/06/03 11:15:08;;;;;;;0.00;0.00;;;;;;;;;;5090804;28;20039;-80
2023/06/03 11:17:36;;;;;;;0.00;0.00;;;;;;;;;;5091268;28;20046;-80
2023/06/03 11:20:02;;;;;;;0.00;0.00;;;;;;;;;;5090837;28;20484;-79
2023/06/03 11:22:28;;;;;;;0.00;0.00;;;;;;;;;;5092887;28;20040;-80
2023/06/03 11:24:55;;;;;;;0.00;0.00;;;;;;;;;;5092125;28;20392;-80
2023/06/03 11:27:21;;;;;;;0.00;0.00;;;;;;;;;;5092539;28;20047;-82
2023/06/03 11:29:47;;;;;;;0.00;0.00;;;;;;;;;;5091936;28;20039;-79
2023/06/03 11:32:29;;;;;;;0.00;0.00;;;;;;;;;;5092351;28;20040;-79
2023/06/03 11:35:15;;;;;;;0.00;0.00;;;;;;;;;;5095678;28;20123;-79
2023/06/03 11:37:41;;;;;;;0.00;0.00;;;;;;;;;;5096357;28;20160;-79
2023/06/03 11:40:07;;;;;;;0.00;0.00;;;;;;;;;;5094692;28;20208;-78
2023/06/03 11:42:48;;;;;;;0.00;0.00;;;;;;;;;;5096436;28;20035;-80
2023/06/03 11:45:28;;;;;;;0.00;0.00;;;;;;;;;;5094835;28;20046;-79
2023/06/03 11:47:54;;;;;;;0.00;0.00;;;;;;;;;;5095007;28;20047;-80
2023/06/03 11:50:22;;;;;;;0.00;0.00;;;;;;;;;;5095884;28;20071;-80
2023/06/03 11:52:48;;;;;;;0.00;0.00;;;;;;;;;;5094896;28;20436;-80
2023/06/03 11:55:23;;;;;;;0.00;0.00;;;;;;;;;;5094733;28;20376;-80
2023/06/03 11:57:50;;;;;;;0.00;0.00;;;;;;;;;;5096293;28;20043;-81
2023/06/03 12:00:16;;;;;;;0.00;0.00;;;;;;;;;;5094273;28;20040;-80
2023/06/03 12:02:46;;;;;;;0.00;0.00;;;;;;;;;;5096095;28;20078;-80
2023/06/03 12:05:15;;;;;;;0.00;0.00;;;;;;;;;;5095651;28;20117;-80
2023/06/03 12:07:43;;;;;;;0.00;0.00;;;;;;;;;;5077994;28;20039;-81
2023/06/03 12:10:11;;;;;;;0.00;0.00;;;;;;;;;;5095652;28;20113;-80
2023/06/03 12:12:49;;;;;;;0.00;0.00;;;;;;;;;;5095612;28;20499;-81
2023/06/03 12:15:15;;;;;;;0.00;0.00;;;;;;;;;;5094226;28;20051;-80
2023/06/03 12:17:41;;;;;;;0.00;0.00;;;;;;;;;;5095831;28;20072;-80
2023/06/03 12:20:08;;;;;;;0.00;0.00;;;;;;;;;;5076941;28;20074;-80
2023/06/03 12:22:34;;;;;;;0.00;0.00;;;;;;;;;;5095718;28;20048;-80
2023/06/03 12:25:00;;;;;;;0.00;0.00;;;;;;;;;;5095386;28;20040;-80
2023/06/03 12:27:26;;;;;;;0.00;0.00;;;;;;;;;;5095671;28;20051;-80
2023/06/03 12:29:53;;;;;;;0.00;0.00;;;;;;;;;;5094919;28;20043;-79
2023/06/03 12:32:19;;;;;;;0.00;0.00;;;;;;;;;;5093927;28;20130;-80
2023/06/03 12:34:46;;;;;;;0.00;0.00;;;;;;;;;;5095084;28;20036;-81
2023/06/03 12:37:12;;;;;;;0.00;0.00;;;;;;;;;;5093970;28;20040;-80
2023/06/03 12:39:39;;;;;;;0.00;0.00;;;;;;;;;;5095087;28;20040;-80
2023/06/03 12:42:06;;;;;;;0.00;0.00;;;;;;;;;;5095012;28;20036;-81
2023/06/03 12:44:41;;;;;;;0.00;0.00;;;;;;;;;;5093185;28;20384;-81
2023/06/03 12:47:07;;;;;;;0.00;0.00;;;;;;;;;;5093379;28;20507;-82
2023/06/03 12:49:34;;;;;;;0.00;0.00;;;;;;;;;;5076729;28;20040;-81
2023/06/03 12:52:31;;;;;;;0.00;0.00;;;;;;;;;;5094891;28;20134;-80
2023/06/03 12:54:59;;;;;;;0.00;0.00;;;;;;;;;;5072124;28;20101;-79
2023/06/03 12:57:25;;;;;;;0.00;0.00;;;;;;;;;;5094711;28;20428;-80
2023/06/03 12:59:58;;;;;;;0.00;0.00;;;;;;;;;;5094893;28;20080;-80
2023/06/03 13:02:24;;;;;;;0.00;0.00;;;;;;;;;;5094907;28;20505;-80
2023/06/03 13:04:51;;;;;;;0.15;0.00;;;;;;;;;;5093544;28;20051;-81
2023/06/03 13:07:17;;;;;;;0.00;0.00;;;;;;;;;;5094448;28;20502;-80
2023/06/03 13:09:43;;;;;;;0.00;0.00;;;;;;;;;;5094446;28;20039;-79
2023/06/03 13:12:09;;;;;;;0.00;0.00;;;;;;;;;;5094109;28;20052;-80
2023/06/03 13:14:35;;;;;;;0.00;0.00;;;;;;;;;;5093261;28;20044;-80
2023/06/03 13:17:02;;;;;;;0.00;0.00;;;;;;;;;;5093035;28;20044;-80
2023/06/03 13:19:28;;;;;;;0.00;0.00;;;;;;;;;;5094142;28;20083;-79
2023/06/03 13:21:54;;;;;;;0.00;0.00;;;;;;;;;;5093222;28;20080;-79
2023/06/03 13:24:20;;;;;;;0.00;0.00;;;;;;;;;;5093079;28;20036;-80
2023/06/03 13:26:46;;;;;;;0.00;0.00;;;;;;;;;;5094076;28;20047;-80
2023/06/03 13:29:13;;;;;;;0.00;0.00;;;;;;;;;;5075914;28;20113;-80
2023/06/03 13:31:39;;;;;;;0.00;0.00;;;;;;;;;;5093925;28;20043;-79
2023/06/03 13:34:05;;;;;;;0.00;0.00;;;;;;;;;;5094160;28;20511;-80
2023/06/03 13:36:31;;;;;;;0.00;0.00;;;;;;;;;;5092768;28;20491;-80
2023/06/03 13:38:57;;;;;;;0.00;0.00;;;;;;;;;;5093096;28;20044;-79
2023/06/03 13:41:23;;;;;;;0.00;0.00;;;;;;;;;;5093794;28;20352;-79
2023/06/03 13:43:50;;;;;;;0.00;0.00;;;;;;;;;;5093802;28;20505;-80
2023/06/03 13:46:16;;;;;;;0.00;0.00;;;;;;;;;;5093662;28;20133;-80
2023/06/03 13:48:42;;;;;;;0.00;0.00;;;;;;;;;;5094002;28;20449;-80
2023/06/03 13:51:08;;;;;;;0.00;0.00;;;;;;;;;;5092313;28;20115;-79
2023/06/03 13:53:34;;;;;;;0.00;0.00;;;;;;;;;;5092536;28;20040;-79
2023/06/03 13:56:00;;;;;;;0.00;0.00;;;;;;;;;;5092841;28;20043;-79
2023/06/03 13:58:26;;;;;;;0.00;0.00;;;;;;;;;;5092518;28;20039;-80
2023/06/03 14:00:52;;;;;;;0.00;0.00;;;;;;;;;;5093509;28;20094;-80
2023/06/03 14:03:18;;;;;;;0.00;0.00;;;;;;;;;;5093916;28;20036;-79
2023/06/03 14:05:46;;;;;;;0.00;0.00;;;;;;;;;;5093235;28;20514;-81
2023/06/03 14:08:13;;;;;;;0.00;0.00;;;;;;;;;;5093630;28;20051;-80
2023/06/03 14:10:42;;;;;;;0.30;0.08;;;;;;;;;;5091854;28;20140;-81
2023/06/03 14:13:08;;;;;;;0.00;0.00;;;;;;;;;;5092011;28;20056;-79
2023/06/03 14:15:36;;;;;;;0.00;0.00;;;;;;;;;;5093449;28;20043;-80
2023/06/03 14:18:02;;;;;;;0.00;0.00;;;;;;;;;;5091782;28;20111;-81
2023/06/03 14:20:29;;;;;;;0.00;0.00;;;;;;;;;;5093173;28;20036;-81
2023/06/03 14:22:55;;;;;;;0.00;0.00;;;;;;;;;;5092857;28;20040;-81
2023/06/03 14:25:21;;;;;;;0.00;0.00;;;;;;;;;;5093350;28;20051;-81
2023/06/03 14:27:47;;;;;;;0.00;0.00;;;;;;;;;;5093107;28;20040;-80
2023/06/03 14:30:13;;;;;;;0.00;0.00;;;;;;;;;;5074828;28;20044;-80
2023/06/03 14:32:40;;;;;;;0.00;0.00;;;;;;;;;;5091659;28;20494;-80
2023/06/03 14:35:07;;;;;;;0.00;0.00;;;;;;;;;;5074791;28;20040;-81
2023/06/03 14:37:36;;;;;;;0.00;0.00;;;;;;;;;;5092632;28;20040;-80
2023/06/03 14:40:02;;;;;;;0.00;0.00;;;;;;;;;;5093063;28;20032;-80
2023/06/03 14:42:28;;;;;;;0.00;0.00;;;;;;;;;;5091613;28;20479;-80
2023/06/03 14:44:54;;;;;;;0.00;0.00;;;;;;;;;;5092726;28;20467;-81
2023/06/03 14:47:23;;;;;;;0.00;0.00;;;;;;;;;;5092722;28;20092;-81